createdAt,value
2022-09-12T00:02:18.416Z,15.11
2022-09-12T00:04:45.226Z,15.12
2022-09-12T00:07:12.289Z,15.09
2022-09-12T00:09:39.316Z,15.09
2022-09-12T00:12:06.318Z,15.04
2022-09-12T00:14:33.711Z,15.03
2022-09-12T00:17:00.989Z,15.01
2022-09-12T00:19:28.718Z,14.97
2022-09-12T00:21:56.124Z,14.95
2022-09-12T00:24:22.909Z,14.93
2022-09-12T00:26:49.677Z,14.92
2022-09-12T00:29:21.290Z,14.93
2022-09-12T00:31:48.214Z,14.91
2022-09-12T00:34:15.122Z,14.90
2022-09-12T00:36:42.197Z,14.92
2022-09-12T00:39:09.391Z,14.90
2022-09-12T00:41:37.448Z,14.88
2022-09-12T00:44:24.464Z,14.86
2022-09-12T00:46:54.910Z,14.81
2022-09-12T00:49:24.574Z,14.81
2022-09-12T00:51:54.256Z,14.78
2022-09-12T00:54:22.613Z,14.78
2022-09-12T00:56:50.474Z,14.75
2022-09-12T00:59:20.304Z,14.73
2022-09-12T01:01:50.130Z,14.75
2022-09-12T01:04:18.236Z,14.74
2022-09-12T01:06:45.526Z,14.77
2022-09-12T01:09:14.533Z,14.75
2022-09-12T01:11:42.045Z,14.76
2022-09-12T01:14:09.196Z,14.74
2022-09-12T01:16:36.996Z,14.72
2022-09-12T01:19:04.128Z,14.73
2022-09-12T01:22:03.507Z,14.73
2022-09-12T01:24:36.619Z,14.71
2022-09-12T01:27:27.188Z,14.72
2022-09-12T01:30:05.877Z,14.69
2022-09-12T01:32:44.606Z,14.62
2022-09-12T01:35:23.991Z,14.68
2022-09-12T01:38:09.304Z,14.64
2022-09-12T01:40:42.458Z,14.58
2022-09-12T01:43:18.960Z,14.55
2022-09-12T01:46:01.193Z,14.52
2022-09-12T01:48:35.920Z,14.53
2022-09-12T01:51:09.071Z,14.53
2022-09-12T01:53:38.290Z,14.52
2022-09-12T01:56:10.272Z,14.53
2022-09-12T01:58:37.012Z,14.52
2022-09-12T02:01:03.827Z,14.57
2022-09-12T02:03:33.748Z,14.57
2022-09-12T02:06:09.054Z,14.60
2022-09-12T02:08:43.288Z,14.65
2022-09-12T02:11:11.191Z,14.73
2022-09-12T02:13:40.914Z,14.79
2022-09-12T02:16:19.440Z,14.81
2022-09-12T02:18:52.277Z,14.87
2022-09-12T02:21:20.099Z,14.95
2022-09-12T02:23:49.108Z,15.01
2022-09-12T02:26:20.516Z,14.98
2022-09-12T02:28:49.589Z,15.10
2022-09-12T02:31:23.370Z,15.09
2022-09-12T02:34:00.380Z,15.13
2022-09-12T02:36:45.902Z,15.22
2022-09-12T02:39:13.039Z,15.23
2022-09-12T02:41:39.780Z,15.30
2022-09-12T02:44:06.619Z,15.33
2022-09-12T02:46:38.558Z,15.34
2022-09-12T02:49:05.306Z,15.41
2022-09-12T02:51:32.752Z,15.42
2022-09-12T02:54:00.067Z,15.46
2022-09-12T02:56:31.016Z,15.50
2022-09-12T02:59:01.754Z,15.53
2022-09-12T03:01:38.202Z,15.57
2022-09-12T03:04:23.754Z,15.63
2022-09-12T03:06:55.939Z,15.58
2022-09-12T03:09:23.387Z,15.57
2022-09-12T03:11:50.601Z,15.63
2022-09-12T03:14:20.757Z,15.63
2022-09-12T03:17:06.131Z,15.63
2022-09-12T03:19:37.430Z,15.66
2022-09-12T03:22:19.363Z,15.63
2022-09-12T03:24:53.167Z,15.64
2022-09-12T03:27:37.132Z,15.61
2022-09-12T03:30:06.160Z,15.63
2022-09-12T03:32:42.035Z,15.60
2022-09-12T03:35:10.239Z,15.54
2022-09-12T03:37:37.314Z,15.55
2022-09-12T03:40:04.597Z,15.49
2022-09-12T03:42:31.726Z,15.46
2022-09-12T03:44:58.441Z,15.39
2022-09-12T03:47:25.208Z,15.37
2022-09-12T03:49:54.852Z,15.34
2022-09-12T03:52:21.657Z,15.30
2022-09-12T03:54:48.385Z,15.28
2022-09-12T03:57:15.880Z,15.27
2022-09-12T03:59:42.649Z,15.26
2022-09-12T04:02:12.593Z,15.24
2022-09-12T04:04:43.310Z,15.26
2022-09-12T04:07:10.941Z,15.23
2022-09-12T04:09:37.876Z,15.23
2022-09-12T04:12:16.755Z,15.19
2022-09-12T04:14:43.633Z,15.21
2022-09-12T04:17:10.880Z,15.18
2022-09-12T04:19:37.665Z,15.16
2022-09-12T04:22:04.662Z,15.18
2022-09-12T04:24:31.746Z,15.17
2022-09-12T04:26:58.531Z,15.18
2022-09-12T04:29:25.340Z,15.25
2022-09-12T04:31:52.437Z,15.30
2022-09-12T04:34:19.579Z,15.36
2022-09-12T04:36:46.344Z,15.39
2022-09-12T04:39:13.442Z,15.43
2022-09-12T04:41:41.862Z,15.47
2022-09-12T04:44:11.800Z,15.50
2022-09-12T04:46:40.149Z,15.54
2022-09-12T04:49:07.279Z,15.59
2022-09-12T04:51:35.877Z,15.61
2022-09-12T04:54:05.223Z,15.62
2022-09-12T04:56:32.046Z,15.65
2022-09-12T04:59:00.557Z,15.70
2022-09-12T05:01:28.418Z,15.78
2022-09-12T05:03:56.064Z,15.88
2022-09-12T05:06:33.226Z,15.87
2022-09-12T05:09:01.939Z,15.87
2022-09-12T05:11:46.853Z,15.88
2022-09-12T05:14:17.399Z,15.88
2022-09-12T05:16:47.265Z,15.90
2022-09-12T05:19:16.275Z,15.95
2022-09-12T05:21:43.386Z,16.03
2022-09-12T05:24:10.644Z,16.15
2022-09-12T05:27:36.163Z,16.27
2022-09-12T05:30:03.660Z,16.35
2022-09-12T05:32:33.733Z,16.34
2022-09-12T05:35:00.504Z,16.42
2022-09-12T05:37:27.781Z,16.45
2022-09-12T05:39:54.921Z,16.55
2022-09-12T05:42:21.734Z,16.68
2022-09-12T05:44:48.870Z,16.78
2022-09-12T05:47:16.916Z,16.82
2022-09-12T05:49:45.296Z,16.80
2022-09-12T05:52:12.686Z,16.79
2022-09-12T05:54:39.480Z,16.80
2022-09-12T05:57:06.260Z,16.85
2022-09-12T05:59:33.335Z,16.94
2022-09-12T06:02:00.445Z,17.05
2022-09-12T06:04:28.097Z,17.20
2022-09-12T06:06:55.374Z,17.24
2022-09-12T06:09:22.810Z,17.30
2022-09-12T06:11:49.665Z,17.38
2022-09-12T06:14:17.614Z,17.45
2022-09-12T06:16:47.031Z,17.56
2022-09-12T06:19:15.246Z,17.73
2022-09-12T06:21:42.528Z,17.84
2022-09-12T06:24:09.637Z,17.85
2022-09-12T06:26:36.517Z,17.70
2022-09-12T06:29:04.299Z,17.63
2022-09-12T06:31:33.231Z,17.62
2022-09-12T06:34:01.141Z,17.64
2022-09-12T06:36:29.535Z,17.61
2022-09-12T06:39:04.027Z,17.65
2022-09-12T06:41:32.041Z,17.64
2022-09-12T06:43:59.202Z,17.57
2022-09-12T06:46:26.475Z,17.56
2022-09-12T06:48:53.833Z,17.63
2022-09-12T06:51:20.679Z,17.65
2022-09-12T06:53:48.176Z,17.86
2022-09-12T06:56:16.500Z,18.17
2022-09-12T06:58:44.205Z,18.47
2022-09-12T07:01:17.299Z,18.65
2022-09-12T07:03:48.821Z,18.68
2022-09-12T07:06:16.817Z,18.69
2022-09-12T07:08:44.091Z,18.80
2022-09-12T07:11:15.327Z,18.95
2022-09-12T07:13:43.585Z,19.35
2022-09-12T07:16:13.021Z,19.85
2022-09-12T07:18:43.619Z,20.14
2022-09-12T07:21:11.923Z,20.30
2022-09-12T07:23:40.318Z,20.12
2022-09-12T07:26:08.105Z,20.14
2022-09-12T07:28:35.630Z,20.29
2022-09-12T07:31:21.580Z,20.42
2022-09-12T07:33:54.343Z,20.38
2022-09-12T07:36:23.533Z,20.39
2022-09-12T07:38:57.452Z,20.45
2022-09-12T07:41:28.843Z,20.54
2022-09-12T07:43:57.098Z,20.53
2022-09-12T07:46:25.076Z,20.59
2022-09-12T07:48:52.683Z,20.74
2022-09-12T07:51:20.266Z,20.87
2022-09-12T07:53:48.021Z,20.57
2022-09-12T07:56:15.215Z,20.05
2022-09-12T07:58:44.812Z,19.84
2022-09-12T08:01:21.078Z,19.87
2022-09-12T08:03:49.243Z,20.20
2022-09-12T08:06:20.033Z,20.01
2022-09-12T08:08:47.440Z,19.89
2022-09-12T08:11:15.847Z,19.80
2022-09-12T08:13:43.292Z,19.73
2022-09-12T08:16:14.536Z,19.54
2022-09-12T08:18:41.698Z,19.39
2022-09-12T08:21:11.946Z,19.36
2022-09-12T08:23:38.751Z,19.39
2022-09-12T08:26:06.571Z,19.27
2022-09-12T08:28:34.088Z,19.29
2022-09-12T08:31:05.503Z,19.16
2022-09-12T08:33:34.663Z,19.23
2022-09-12T08:36:06.084Z,19.15
2022-09-12T08:38:33.588Z,19.06
2022-09-12T08:41:18.908Z,18.96
2022-09-12T08:43:56.848Z,19.05
2022-09-12T08:46:33.578Z,19.18
2022-09-12T08:49:01.669Z,19.09
2022-09-12T08:51:29.483Z,18.92
2022-09-12T08:53:57.184Z,18.86
2022-09-12T08:56:29.657Z,18.82
2022-09-12T08:58:59.455Z,18.83
2022-09-12T09:01:31.457Z,18.96
2022-09-12T09:04:17.644Z,19.13
2022-09-12T09:07:04.052Z,19.18
2022-09-12T09:09:43.457Z,19.22
2022-09-12T09:12:16.537Z,19.33
2022-09-12T09:14:49.757Z,19.43
2022-09-12T09:17:21.651Z,19.39
2022-09-12T09:19:54.121Z,19.39
2022-09-12T09:22:24.081Z,19.48
2022-09-12T09:24:53.605Z,19.63
2022-09-12T09:27:39.856Z,19.86
2022-09-12T09:30:15.774Z,20.02
2022-09-12T09:32:44.890Z,20.08
2022-09-12T09:35:15.414Z,20.11
2022-09-12T09:37:43.516Z,19.96
2022-09-12T09:40:29.187Z,20.00
2022-09-12T09:42:59.360Z,20.41
2022-09-12T09:45:29.266Z,20.34
2022-09-12T09:48:15.415Z,20.71
2022-09-12T09:50:48.539Z,21.13
2022-09-12T09:53:26.397Z,21.27
2022-09-12T09:55:55.012Z,21.23
2022-09-12T09:58:29.532Z,21.34
2022-09-12T10:01:07.158Z,21.39
2022-09-12T10:03:37.272Z,21.42
2022-09-12T10:06:19.349Z,21.48
2022-09-12T10:08:47.590Z,21.61
2022-09-12T10:11:19.926Z,21.75
2022-09-12T10:13:55.042Z,21.83
2022-09-12T10:16:22.644Z,21.83
2022-09-12T10:18:53.314Z,21.67
2022-09-12T10:21:32.204Z,21.37
2022-09-12T10:24:05.282Z,20.96
2022-09-12T10:26:33.651Z,21.03
2022-09-12T10:29:04.344Z,21.16
2022-09-12T10:31:51.448Z,20.79
2022-09-12T10:34:25.307Z,20.59
2022-09-12T10:36:53.657Z,20.31
2022-09-12T10:39:20.944Z,20.16
2022-09-12T10:41:47.997Z,20.16
2022-09-12T10:44:16.086Z,20.27
2022-09-12T10:46:43.182Z,20.24
2022-09-12T10:49:38.227Z,20.12
2022-09-12T10:52:37.479Z,20.06
2022-09-12T10:55:05.995Z,20.42
2022-09-12T10:57:39.018Z,20.86
2022-09-12T11:00:20.362Z,21.23
2022-09-12T11:03:08.118Z,21.64
2022-09-12T11:05:45.653Z,22.13
2022-09-12T11:08:38.981Z,22.45
2022-09-12T11:11:30.734Z,22.81
2022-09-12T11:14:07.144Z,22.88
2022-09-12T11:16:43.013Z,22.80
2022-09-12T11:19:26.944Z,22.59
2022-09-12T11:22:11.721Z,22.38
2022-09-12T11:25:05.581Z,22.21
2022-09-12T11:27:41.351Z,21.87
2022-09-12T11:30:13.225Z,21.61
2022-09-12T11:32:40.858Z,21.75
2022-09-12T11:35:20.448Z,21.74
2022-09-12T11:38:07.315Z,21.51
2022-09-12T11:40:37.428Z,21.33
2022-09-12T11:43:11.034Z,21.03
2022-09-12T11:45:45.289Z,21.04
2022-09-12T11:48:16.200Z,21.13
2022-09-12T11:50:43.283Z,21.24
2022-09-12T11:53:17.398Z,21.40
2022-09-12T11:55:50.769Z,21.49
2022-09-12T11:58:19.517Z,21.63
2022-09-12T12:00:56.240Z,21.48
2022-09-12T12:03:29.215Z,21.34
2022-09-12T12:06:11.444Z,21.21
2022-09-12T12:08:39.884Z,21.16
2022-09-12T12:11:08.189Z,21.20
2022-09-12T12:13:41.165Z,21.26
2022-09-12T12:16:14.308Z,21.41
2022-09-12T12:18:42.940Z,21.69
2022-09-12T12:21:28.468Z,21.93
2022-09-12T12:24:07.565Z,22.14
2022-09-12T12:26:40.712Z,22.34
2022-09-12T12:29:11.708Z,22.40
2022-09-12T12:31:57.642Z,22.50
2022-09-12T12:34:32.380Z,22.54
2022-09-12T12:37:19.592Z,22.54
2022-09-12T12:39:50.400Z,22.52
2022-09-12T12:42:35.757Z,22.74
2022-09-12T12:45:08.586Z,22.61
2022-09-12T12:47:38.691Z,22.53
2022-09-12T12:50:20.724Z,22.66
2022-09-12T12:52:49.722Z,22.54
2022-09-12T12:55:23.891Z,22.47
2022-09-12T12:57:51.793Z,22.52
2022-09-12T13:00:24.780Z,22.60
2022-09-12T13:03:00.478Z,22.51
2022-09-12T13:05:28.331Z,22.59
2022-09-12T13:07:58.497Z,22.75
2022-09-12T13:10:27.038Z,22.74
2022-09-12T13:12:53.942Z,22.53
2022-09-12T13:15:47.849Z,22.47
2022-09-12T13:18:47.309Z,22.43
2022-09-12T13:21:19.142Z,22.43
2022-09-12T13:23:59.550Z,22.32
2022-09-12T13:26:26.879Z,22.13
2022-09-12T13:29:29.474Z,22.01
2022-09-12T13:32:01.291Z,21.78
2022-09-12T13:34:28.237Z,21.71
2022-09-12T13:37:12.255Z,21.89
2022-09-12T13:39:48.223Z,22.15
2022-09-12T13:42:38.918Z,22.35
2022-09-12T13:45:07.888Z,22.55
2022-09-12T13:47:44.952Z,22.79
2022-09-12T13:50:16.970Z,22.62
2022-09-12T13:52:46.414Z,22.68
2022-09-12T13:55:27.296Z,22.68
2022-09-12T13:57:58.297Z,22.79
2022-09-12T14:00:25.515Z,22.98
2022-09-12T14:03:12.346Z,22.95
2022-09-12T14:05:40.849Z,23.00
2022-09-12T14:08:08.711Z,23.12
2022-09-12T14:10:37.389Z,22.99
2022-09-12T14:13:10.583Z,22.76
2022-09-12T14:15:38.354Z,22.63
2022-09-12T14:18:08.402Z,22.33
2022-09-12T14:20:39.523Z,21.97
2022-09-12T14:23:14.156Z,21.89
2022-09-12T14:25:41.541Z,21.83
2022-09-12T14:28:11.916Z,21.80
2022-09-12T14:30:39.103Z,21.80
2022-09-12T14:33:12.029Z,21.73
2022-09-12T14:35:43.478Z,21.72
2022-09-12T14:38:16.709Z,21.52
2022-09-12T14:40:43.957Z,21.58
2022-09-12T14:43:26.150Z,21.56
2022-09-12T14:45:55.036Z,21.59
2022-09-12T14:48:22.417Z,21.54
2022-09-12T14:50:50.528Z,21.43
2022-09-12T14:53:17.639Z,21.31
2022-09-12T14:55:46.438Z,21.16
2022-09-12T14:58:13.293Z,21.08
2022-09-12T15:00:58.153Z,21.00
2022-09-12T15:03:48.692Z,21.01
2022-09-12T15:06:30.386Z,21.00
2022-09-12T15:08:59.510Z,21.02
2022-09-12T15:11:26.696Z,21.03
2022-09-12T15:13:53.963Z,21.09
2022-09-12T15:16:21.334Z,21.03
2022-09-12T15:18:48.575Z,21.04
2022-09-12T15:21:21.017Z,21.07
2022-09-12T15:23:51.697Z,21.15
2022-09-12T15:26:22.578Z,21.13
2022-09-12T15:28:50.569Z,21.05
2022-09-12T15:31:22.826Z,21.08
2022-09-12T15:33:51.095Z,21.08
2022-09-12T15:36:21.806Z,20.93
2022-09-12T15:38:52.926Z,20.89
2022-09-12T15:41:22.260Z,20.82
2022-09-12T15:43:50.207Z,20.76
2022-09-12T15:46:18.150Z,20.73
2022-09-12T15:48:46.142Z,20.65
2022-09-12T15:51:15.610Z,20.60
2022-09-12T15:53:43.857Z,20.60
2022-09-12T15:56:11.973Z,20.62
2022-09-12T15:58:54.980Z,20.69
2022-09-12T16:01:25.085Z,20.78
2022-09-12T16:03:52.473Z,20.82
2022-09-12T16:06:19.347Z,20.83
2022-09-12T16:08:46.644Z,20.79
2022-09-12T16:11:19.948Z,20.76
2022-09-12T16:13:47.477Z,20.74
2022-09-12T16:16:14.336Z,20.73
2022-09-12T16:18:41.438Z,20.69
2022-09-12T16:21:14.051Z,20.69
2022-09-12T16:23:45.763Z,20.69
2022-09-12T16:26:12.975Z,20.63
2022-09-12T16:28:40.302Z,20.56
2022-09-12T16:31:07.849Z,20.49
2022-09-12T16:33:35.098Z,20.39
2022-09-12T16:36:03.732Z,20.29
2022-09-12T16:38:31.025Z,20.21
2022-09-12T16:41:05.946Z,20.17
2022-09-12T16:43:37.588Z,20.07
2022-09-12T16:46:06.672Z,19.99
2022-09-12T16:48:33.939Z,19.94
2022-09-12T16:51:02.059Z,19.89
2022-09-12T16:53:34.511Z,19.83
2022-09-12T16:56:01.875Z,19.80
2022-09-12T16:58:32.092Z,19.78
2022-09-12T17:01:03.521Z,19.74
2022-09-12T17:03:31.208Z,19.70
2022-09-12T17:05:58.885Z,19.66
2022-09-12T17:08:25.702Z,19.60
2022-09-12T17:10:52.703Z,19.59
2022-09-12T17:13:19.463Z,19.49
2022-09-12T17:15:46.251Z,19.40
2022-09-12T17:18:13.589Z,19.34
2022-09-12T17:20:40.413Z,19.35
2022-09-12T17:23:09.760Z,19.32
2022-09-12T17:25:37.180Z,19.26
2022-09-12T17:28:07.624Z,19.25
2022-09-12T17:30:34.909Z,19.24
2022-09-12T17:33:02.134Z,19.18
2022-09-12T17:35:29.152Z,19.21
2022-09-12T17:37:55.948Z,19.17
2022-09-12T17:40:37.053Z,19.14
2022-09-12T17:43:12.143Z,19.06
2022-09-12T17:45:39.702Z,18.96
2022-09-12T17:48:07.099Z,18.86
2022-09-12T17:50:39.439Z,18.83
2022-09-12T17:53:07.296Z,18.71
2022-09-12T17:55:37.571Z,18.67
2022-09-12T17:58:04.638Z,18.59
2022-09-12T18:00:50.539Z,18.60
2022-09-12T18:03:21.207Z,18.58
2022-09-12T18:05:48.904Z,18.56
2022-09-12T18:08:15.874Z,18.56
2022-09-12T18:10:42.627Z,18.46
2022-09-12T18:13:09.806Z,18.42
2022-09-12T18:15:36.696Z,18.33
2022-09-12T18:18:04.018Z,18.27
2022-09-12T18:20:31.781Z,18.19
2022-09-12T18:22:58.555Z,18.13
2022-09-12T18:25:25.720Z,18.09
2022-09-12T18:27:52.976Z,18.05
2022-09-12T18:30:22.083Z,18.00
2022-09-12T18:32:51.565Z,17.97
2022-09-12T18:35:18.711Z,17.93
2022-09-12T18:37:45.651Z,17.88
2022-09-12T18:40:12.610Z,17.86
2022-09-12T18:42:39.838Z,17.82
2022-09-12T18:45:07.042Z,17.77
2022-09-12T18:47:33.984Z,17.73
2022-09-12T18:50:01.438Z,17.71
2022-09-12T18:52:28.263Z,17.68
2022-09-12T18:54:55.109Z,17.64
2022-09-12T18:57:22.327Z,17.63
2022-09-12T18:59:49.950Z,17.59
2022-09-12T19:02:16.926Z,17.57
2022-09-12T19:04:44.361Z,17.51
2022-09-12T19:07:11.227Z,17.47
2022-09-12T19:09:38.079Z,17.38
2022-09-12T19:12:05.232Z,17.34
2022-09-12T19:14:32.045Z,17.31
2022-09-12T19:16:58.936Z,17.28
2022-09-12T19:19:25.948Z,17.23
2022-09-12T19:21:55.102Z,17.18
2022-09-12T19:24:25.020Z,17.14
2022-09-12T19:26:52.244Z,17.11
2022-09-12T19:29:19.156Z,17.10
2022-09-12T19:31:46.292Z,17.10
2022-09-12T19:34:13.766Z,17.08
2022-09-12T19:36:45.536Z,17.06
2022-09-12T19:39:14.351Z,17.03
2022-09-12T19:41:41.265Z,17.01
2022-09-12T19:44:08.121Z,16.98
2022-09-12T19:46:35.240Z,16.93
2022-09-12T19:49:02.252Z,16.94
2022-09-12T19:51:29.041Z,16.93
2022-09-12T19:53:56.202Z,16.91
2022-09-12T19:56:23.059Z,16.86
2022-09-12T19:58:55.770Z,16.83
2022-09-12T20:01:25.657Z,16.81
2022-09-12T20:03:55.474Z,16.77
2022-09-12T20:06:22.647Z,16.71
2022-09-12T20:08:49.855Z,16.68
2022-09-12T20:11:18.012Z,16.68
2022-09-12T20:13:45.206Z,16.65
2022-09-12T20:16:19.011Z,16.65
2022-09-12T20:21:40.255Z,16.61
2022-09-12T20:24:11.599Z,16.60
2022-09-12T20:26:38.428Z,16.57
2022-09-12T20:29:06.070Z,16.57
2022-09-12T20:31:33.501Z,16.55
2022-09-12T20:34:00.508Z,16.51
2022-09-12T20:36:27.869Z,16.46
2022-09-12T20:39:02.811Z,16.41
2022-09-12T20:41:31.017Z,16.39
2022-09-12T20:43:58.196Z,16.37
2022-09-12T20:46:26.097Z,16.35
2022-09-12T20:48:53.306Z,16.36
2022-09-12T20:51:21.067Z,16.35
2022-09-12T20:53:48.240Z,16.34
2022-09-12T20:56:15.487Z,16.32
2022-09-12T20:58:44.502Z,16.29
2022-09-12T21:01:12.390Z,16.28
2022-09-12T21:03:41.550Z,16.26
2022-09-12T21:06:09.096Z,16.22
2022-09-12T21:08:36.756Z,16.20
2022-09-12T21:11:04.758Z,16.17
2022-09-12T21:13:31.791Z,16.09
2022-09-12T21:15:59.667Z,16.05
2022-09-12T21:18:26.968Z,16.00
2022-09-12T21:20:54.659Z,15.94
2022-09-12T21:23:21.950Z,15.88
2022-09-12T21:25:52.397Z,15.84
2022-09-12T21:28:20.138Z,15.82
2022-09-12T21:30:50.695Z,15.78
2022-09-12T21:33:18.941Z,15.73
2022-09-12T21:35:47.102Z,15.72
2022-09-12T21:38:17.949Z,15.68
2022-09-12T21:40:45.332Z,15.67
2022-09-12T21:43:13.087Z,15.65
2022-09-12T21:45:40.500Z,15.63
2022-09-12T21:48:07.787Z,15.59
2022-09-12T21:50:34.600Z,15.53
2022-09-12T21:53:01.539Z,15.45
2022-09-12T21:55:28.618Z,15.42
2022-09-12T21:57:55.402Z,15.41
2022-09-12T22:00:22.696Z,15.38
2022-09-12T22:02:53.810Z,15.36
2022-09-12T22:05:21.397Z,15.37
2022-09-12T22:07:48.275Z,15.37
2022-09-12T22:10:15.530Z,15.35
2022-09-12T22:12:46.197Z,15.34
2022-09-12T22:15:39.005Z,15.32
2022-09-12T22:18:00.689Z,15.29
2022-09-12T22:20:27.464Z,15.24
2022-09-12T22:23:12.785Z,15.20
2022-09-12T22:25:39.977Z,15.17
2022-09-12T22:28:07.152Z,15.15
2022-09-12T22:30:34.014Z,15.18
2022-09-12T22:33:01.086Z,15.18
2022-09-12T22:35:27.871Z,15.18
2022-09-12T22:37:54.658Z,15.11
2022-09-12T22:40:21.823Z,15.06
2022-09-12T22:42:51.477Z,14.98
2022-09-12T22:45:19.214Z,14.94
2022-09-12T22:47:46.607Z,14.89
2022-09-12T22:50:13.860Z,14.88
2022-09-12T22:52:40.671Z,14.82
2022-09-12T22:55:07.946Z,14.80
2022-09-12T22:57:34.819Z,14.76
2022-09-12T23:00:01.701Z,14.74
2022-09-12T23:02:31.272Z,14.76
2022-09-12T23:04:58.052Z,14.76
2022-09-12T23:07:25.103Z,14.75
2022-09-12T23:09:53.646Z,14.76
2022-09-12T23:12:20.402Z,14.78
2022-09-12T23:14:47.541Z,14.73
2022-09-12T23:17:14.605Z,14.80
2022-09-12T23:19:41.429Z,14.79
2022-09-12T23:22:08.207Z,14.77
2022-09-12T23:24:35.222Z,14.76
2022-09-12T23:27:01.999Z,14.74
2022-09-12T23:29:28.753Z,14.72
2022-09-12T23:31:55.831Z,14.71
2022-09-12T23:34:22.560Z,14.71
2022-09-12T23:36:49.343Z,14.72
2022-09-12T23:39:16.688Z,14.70
2022-09-12T23:41:43.413Z,14.67
2022-09-12T23:44:10.160Z,14.63
2022-09-12T23:46:37.200Z,14.61
2022-09-12T23:49:03.963Z,14.55
2022-09-12T23:51:31.110Z,14.54
2022-09-12T23:53:58.267Z,14.53
2022-09-12T23:56:25.019Z,14.52
2022-09-12T23:58:51.793Z,14.49
